Home   Weather   Germany   Neubrandenburg   Past weeks
Flag for Germany

Past Weather in Neubrandenburg, Mecklenburg-Western Pomerania, Germany — Yesterday and Last 2 Weeks

Currently: 41 °F. Clear. (Weather station: Heringsdorf, Germany). See more current weather

Past Weather in Neubrandenburg — Graph

°F

Neubrandenburg Temperature Yesterday

Maximum temperature yesterday: 52 °F (at 2:20 pm)
Minimum temperature yesterday: 36 °F (at 4:50 am)
Average temperature yesterday: 43 °F

High & Low Weather Summary for the Past Weeks

 TemperatureHumidityPressure
High55 °F (Feb 16, 1:50 pm)100% (Feb 9, 11:50 pm)30.54 "Hg (Feb 9, 11:50 pm)
Low30 °F (Feb 18, 2:20 am)54% (Feb 23, 1:20 pm)29.00 "Hg (Feb 22, 11:50 pm)
Average43 °F90%29.79 "Hg
* Reported Feb 9 11:20 pm — Feb 24 11:20 pm, Neubrandenburg. Weather by CustomWeather, © 2024

Note: Actual official high and low records may vary slightly from our data, if they occured in-between our weather recording intervals... More about our weather records

Neubrandenburg Weather History for the Previous 24 Hours

Scroll right to see more
 ConditionsComfort  
Time TempWeatherWind HumidityBarometerVisibility
11:20 pm
Sat, Feb 24
43 °FClear.9 mph76%29.71 "HgN/A
10:50 pm43 °FPassing clouds.8 mph81%29.71 "HgN/A
10:20 pm45 °FPassing clouds.9 mph76%29.68 "HgN/A
9:50 pm45 °FPassing clouds.10 mph76%29.68 "HgN/A
9:20 pm45 °FPassing clouds.10 mph76%29.68 "HgN/A
8:50 pm45 °FPassing clouds.8 mph76%29.68 "HgN/A
8:20 pm45 °FPassing clouds.9 mph76%29.68 "HgN/A
7:50 pm45 °FPassing clouds.8 mph76%29.68 "HgN/A
7:20 pm45 °FPassing clouds.7 mph76%29.68 "HgN/A
6:50 pm45 °FPartly cloudy.3 mph76%29.65 "HgN/A
6:20 pm45 °FPassing clouds.5 mph76%29.65 "HgN/A
5:50 pm46 °FPassing clouds.9 mph66%29.65 "HgN/A
5:20 pm48 °FPartly sunny.16 mph62%29.62 "HgN/A
4:50 pm48 °FPassing clouds.14 mph62%29.62 "HgN/A
4:20 pm50 °FScattered clouds.9 mph62%29.59 "HgN/A
3:20 pm50 °FSunny.10 mph58%29.59 "Hg10 mi
2:50 pm50 °FSunny.10 mph58%29.59 "Hg10 mi
2:20 pm52 °FSunny.10 mph54%29.59 "Hg10 mi
1:50 pm50 °FSunny.9 mph58%29.56 "Hg10 mi
1:20 pm50 °FSunny.9 mph58%29.56 "Hg10 mi
12:50 pm48 °FSunny.7 mph66%29.56 "Hg10 mi
12:20 pm48 °FSunny.6 mph62%29.56 "Hg10 mi
11:50 am46 °FPassing clouds.5 mph66%29.56 "HgN/A
11:20 am45 °FSunny.6 mph71%29.56 "Hg10 mi
10:50 am45 °FSunny.6 mph71%29.56 "Hg10 mi
10:20 am43 °FPassing clouds.6 mph76%29.56 "HgN/A
9:50 am41 °FSunny.7 mph76%29.53 "Hg10 mi
8:50 am41 °FSunny.7 mph81%29.53 "Hg10 mi
8:20 am37 °FSunny.7 mph87%29.53 "HgN/A
7:50 am37 °FPassing clouds.6 mph87%29.53 "HgN/A
7:20 am36 °FPartly sunny.5 mph87%29.50 "HgN/A
6:50 am36 °FOvercast.5 mph93%29.50 "HgN/A
6:20 am37 °FPassing clouds.3 mph87%29.50 "HgN/A
5:50 am37 °FPassing clouds.3 mph87%29.50 "HgN/A
5:20 am36 °FPassing clouds.3 mph93%29.50 "HgN/A
4:50 am36 °FOvercast.5 mph93%29.50 "HgN/A
4:20 am37 °FOvercast.3 mph87%29.50 "HgN/A
3:50 am37 °FOvercast.6 mph87%29.50 "HgN/A
3:20 am39 °FOvercast.6 mph87%29.50 "HgN/A
2:50 am39 °FMostly cloudy.6 mph87%29.50 "HgN/A
2:20 am41 °FPartly cloudy.3 mph81%29.50 "HgN/A
1:50 am39 °FMostly cloudy.6 mph87%29.50 "HgN/A
12:20 am39 °FOvercast.3 mph81%29.53 "HgN/A
Weather by CustomWeather, © 2024

See weather overview